sensor_id;sensor_type;location;lat;lon;timestamp;P1;durP1;ratioP1;P2;durP2;ratioP2
22007;SDS011;11168;56.976;24.168;2023-12-14T00:01:30;43.55;;;24.83;;
22007;SDS011;11168;56.976;24.168;2023-12-14T00:03:57;40.30;;;24.40;;
22007;SDS011;11168;56.976;24.168;2023-12-14T00:06:24;44.88;;;25.17;;
22007;SDS011;11168;56.976;24.168;2023-12-14T00:08:54;43.13;;;25.77;;
22007;SDS011;11168;56.976;24.168;2023-12-14T00:11:22;41.63;;;24.42;;
22007;SDS011;11168;56.976;24.168;2023-12-14T00:13:49;41.80;;;24.80;;
22007;SDS011;11168;56.976;24.168;2023-12-14T00:16:16;39.88;;;24.05;;
22007;SDS011;11168;56.976;24.168;2023-12-14T00:18:43;45.30;;;25.63;;
22007;SDS011;11168;56.976;24.168;2023-12-14T00:21:10;39.95;;;22.88;;
22007;SDS011;11168;56.976;24.168;2023-12-14T00:23:37;41.10;;;24.02;;
22007;SDS011;11168;56.976;24.168;2023-12-14T00:26:04;38.95;;;23.20;;
22007;SDS011;11168;56.976;24.168;2023-12-14T00:28:31;41.90;;;24.83;;
22007;SDS011;11168;56.976;24.168;2023-12-14T00:31:00;43.35;;;23.98;;
22007;SDS011;11168;56.976;24.168;2023-12-14T00:33:28;42.75;;;23.55;;
22007;SDS011;11168;56.976;24.168;2023-12-14T00:35:56;34.75;;;21.60;;
22007;SDS011;11168;56.976;24.168;2023-12-14T00:38:23;36.33;;;22.45;;
22007;SDS011;11168;56.976;24.168;2023-12-14T00:40:50;40.63;;;22.40;;
22007;SDS011;11168;56.976;24.168;2023-12-14T00:43:17;36.58;;;21.60;;
22007;SDS011;11168;56.976;24.168;2023-12-14T00:45:44;37.33;;;21.58;;
22007;SDS011;11168;56.976;24.168;2023-12-14T00:48:12;37.33;;;21.83;;
22007;SDS011;11168;56.976;24.168;2023-12-14T00:50:39;38.55;;;22.15;;
22007;SDS011;11168;56.976;24.168;2023-12-14T00:53:06;42.35;;;24.25;;
22007;SDS011;11168;56.976;24.168;2023-12-14T00:55:36;41.40;;;23.17;;
22007;SDS011;11168;56.976;24.168;2023-12-14T00:58:03;40.88;;;22.45;;
22007;SDS011;11168;56.976;24.168;2023-12-14T01:00:30;35.60;;;21.42;;
22007;SDS011;11168;56.976;24.168;2023-12-14T01:02:57;35.40;;;21.63;;
22007;SDS011;11168;56.976;24.168;2023-12-14T01:05:24;38.03;;;22.73;;
22007;SDS011;11168;56.976;24.168;2023-12-14T01:07:51;39.53;;;22.25;;
22007;SDS011;11168;56.976;24.168;2023-12-14T01:10:19;40.70;;;22.42;;
22007;SDS011;11168;56.976;24.168;2023-12-14T01:12:49;43.10;;;23.92;;
22007;SDS011;11168;56.976;24.168;2023-12-14T01:15:19;41.78;;;23.42;;
22007;SDS011;11168;56.976;24.168;2023-12-14T01:17:48;43.88;;;24.52;;
22007;SDS011;11168;56.976;24.168;2023-12-14T01:20:18;43.05;;;24.80;;
22007;SDS011;11168;56.976;24.168;2023-12-14T01:22:47;39.40;;;22.80;;
22007;SDS011;11168;56.976;24.168;2023-12-14T01:25:14;40.00;;;23.67;;
22007;SDS011;11168;56.976;24.168;2023-12-14T01:27:41;42.17;;;24.65;;
22007;SDS011;11168;56.976;24.168;2023-12-14T01:30:08;47.03;;;25.63;;
22007;SDS011;11168;56.976;24.168;2023-12-14T01:32:36;47.15;;;26.75;;
22007;SDS011;11168;56.976;24.168;2023-12-14T01:35:04;48.95;;;28.10;;
22007;SDS011;11168;56.976;24.168;2023-12-14T01:37:31;48.50;;;28.77;;
22007;SDS011;11168;56.976;24.168;2023-12-14T01:39:58;50.25;;;29.13;;
22007;SDS011;11168;56.976;24.168;2023-12-14T01:42:26;48.60;;;28.05;;
22007;SDS011;11168;56.976;24.168;2023-12-14T01:44:54;49.28;;;27.33;;
22007;SDS011;11168;56.976;24.168;2023-12-14T01:47:21;50.78;;;27.75;;
22007;SDS011;11168;56.976;24.168;2023-12-14T01:49:49;44.85;;;26.85;;
22007;SDS011;11168;56.976;24.168;2023-12-14T01:52:16;51.42;;;28.88;;
22007;SDS011;11168;56.976;24.168;2023-12-14T01:54:44;48.67;;;28.63;;
22007;SDS011;11168;56.976;24.168;2023-12-14T01:57:13;46.95;;;27.63;;
22007;SDS011;11168;56.976;24.168;2023-12-14T01:59:40;50.70;;;28.52;;
22007;SDS011;11168;56.976;24.168;2023-12-14T02:02:11;53.30;;;28.55;;
22007;SDS011;11168;56.976;24.168;2023-12-14T02:04:38;53.45;;;28.23;;
22007;SDS011;11168;56.976;24.168;2023-12-14T02:07:05;49.38;;;27.63;;
22007;SDS011;11168;56.976;24.168;2023-12-14T02:09:32;50.70;;;28.65;;
22007;SDS011;11168;56.976;24.168;2023-12-14T02:11:59;50.35;;;28.67;;
22007;SDS011;11168;56.976;24.168;2023-12-14T02:14:26;51.85;;;28.75;;
22007;SDS011;11168;56.976;24.168;2023-12-14T02:16:54;46.47;;;26.98;;
22007;SDS011;11168;56.976;24.168;2023-12-14T02:19:21;49.13;;;28.60;;
22007;SDS011;11168;56.976;24.168;2023-12-14T02:21:48;52.63;;;28.33;;
22007;SDS011;11168;56.976;24.168;2023-12-14T02:24:15;51.25;;;28.13;;
22007;SDS011;11168;56.976;24.168;2023-12-14T02:26:42;51.05;;;29.75;;
22007;SDS011;11168;56.976;24.168;2023-12-14T02:29:28;51.65;;;28.83;;
22007;SDS011;11168;56.976;24.168;2023-12-14T02:31:56;50.97;;;28.88;;
22007;SDS011;11168;56.976;24.168;2023-12-14T02:34:23;52.67;;;29.58;;
22007;SDS011;11168;56.976;24.168;2023-12-14T02:36:51;53.22;;;28.80;;
22007;SDS011;11168;56.976;24.168;2023-12-14T02:39:21;54.65;;;29.35;;
22007;SDS011;11168;56.976;24.168;2023-12-14T02:41:49;53.60;;;28.40;;
22007;SDS011;11168;56.976;24.168;2023-12-14T02:44:16;46.63;;;27.30;;
22007;SDS011;11168;56.976;24.168;2023-12-14T02:46:44;47.55;;;27.58;;
22007;SDS011;11168;56.976;24.168;2023-12-14T02:49:11;49.22;;;28.08;;
22007;SDS011;11168;56.976;24.168;2023-12-14T02:51:38;50.20;;;27.08;;
22007;SDS011;11168;56.976;24.168;2023-12-14T02:54:05;48.05;;;28.15;;
22007;SDS011;11168;56.976;24.168;2023-12-14T02:56:32;53.47;;;31.42;;
22007;SDS011;11168;56.976;24.168;2023-12-14T02:58:59;43.53;;;25.58;;
22007;SDS011;11168;56.976;24.168;2023-12-14T03:01:26;45.13;;;25.17;;
22007;SDS011;11168;56.976;24.168;2023-12-14T03:03:53;43.50;;;25.63;;
22007;SDS011;11168;56.976;24.168;2023-12-14T03:06:22;44.30;;;24.35;;
22007;SDS011;11168;56.976;24.168;2023-12-14T03:08:51;42.15;;;25.35;;
22007;SDS011;11168;56.976;24.168;2023-12-14T03:11:21;41.88;;;23.33;;
22007;SDS011;11168;56.976;24.168;2023-12-14T03:13:52;44.17;;;24.60;;
22007;SDS011;11168;56.976;24.168;2023-12-14T03:16:19;40.78;;;23.20;;
22007;SDS011;11168;56.976;24.168;2023-12-14T03:18:47;41.33;;;22.70;;
22007;SDS011;11168;56.976;24.168;2023-12-14T03:21:19;42.75;;;25.13;;
22007;SDS011;11168;56.976;24.168;2023-12-14T03:23:47;41.53;;;25.08;;
22007;SDS011;11168;56.976;24.168;2023-12-14T03:26:14;44.35;;;26.33;;
22007;SDS011;11168;56.976;24.168;2023-12-14T03:28:42;40.88;;;24.35;;
22007;SDS011;11168;56.976;24.168;2023-12-14T03:31:10;50.53;;;29.40;;
22007;SDS011;11168;56.976;24.168;2023-12-14T03:33:38;40.75;;;23.83;;
22007;SDS011;11168;56.976;24.168;2023-12-14T03:36:06;41.85;;;21.80;;
22007;SDS011;11168;56.976;24.168;2023-12-14T03:38:33;40.13;;;23.60;;
22007;SDS011;11168;56.976;24.168;2023-12-14T03:41:00;38.38;;;22.60;;
22007;SDS011;11168;56.976;24.168;2023-12-14T03:43:27;37.63;;;21.63;;
22007;SDS011;11168;56.976;24.168;2023-12-14T03:45:54;41.08;;;22.92;;
22007;SDS011;11168;56.976;24.168;2023-12-14T03:48:21;35.15;;;21.15;;
22007;SDS011;11168;56.976;24.168;2023-12-14T03:50:49;35.17;;;21.52;;
22007;SDS011;11168;56.976;24.168;2023-12-14T03:53:18;37.88;;;23.27;;
22007;SDS011;11168;56.976;24.168;2023-12-14T03:55:48;52.92;;;31.02;;
22007;SDS011;11168;56.976;24.168;2023-12-14T03:58:16;64.88;;;39.80;;
22007;SDS011;11168;56.976;24.168;2023-12-14T04:00:43;50.75;;;31.90;;
22007;SDS011;11168;56.976;24.168;2023-12-14T04:03:10;52.80;;;31.52;;
22007;SDS011;11168;56.976;24.168;2023-12-14T04:05:38;48.05;;;28.40;;
22007;SDS011;11168;56.976;24.168;2023-12-14T04:08:06;43.88;;;27.23;;
22007;SDS011;11168;56.976;24.168;2023-12-14T04:10:33;47.85;;;28.15;;
22007;SDS011;11168;56.976;24.168;2023-12-14T04:13:00;49.53;;;28.67;;
22007;SDS011;11168;56.976;24.168;2023-12-14T04:15:28;50.38;;;28.95;;
22007;SDS011;11168;56.976;24.168;2023-12-14T04:17:57;51.83;;;29.70;;
22007;SDS011;11168;56.976;24.168;2023-12-14T04:20:24;51.95;;;29.02;;
22007;SDS011;11168;56.976;24.168;2023-12-14T04:22:54;52.33;;;30.23;;
22007;SDS011;11168;56.976;24.168;2023-12-14T04:25:23;56.65;;;31.63;;
22007;SDS011;11168;56.976;24.168;2023-12-14T04:27:51;70.03;;;36.70;;
22007;SDS011;11168;56.976;24.168;2023-12-14T04:30:18;81.88;;;39.72;;
22007;SDS011;11168;56.976;24.168;2023-12-14T04:32:45;85.50;;;42.30;;
22007;SDS011;11168;56.976;24.168;2023-12-14T04:35:14;80.57;;;42.88;;
22007;SDS011;11168;56.976;24.168;2023-12-14T04:37:41;84.93;;;43.60;;
22007;SDS011;11168;56.976;24.168;2023-12-14T04:40:10;84.10;;;43.08;;
22007;SDS011;11168;56.976;24.168;2023-12-14T04:42:38;68.53;;;37.95;;
22007;SDS011;11168;56.976;24.168;2023-12-14T04:45:07;65.05;;;37.05;;
22007;SDS011;11168;56.976;24.168;2023-12-14T04:47:35;61.67;;;35.22;;
22007;SDS011;11168;56.976;24.168;2023-12-14T04:50:03;59.42;;;33.25;;
22007;SDS011;11168;56.976;24.168;2023-12-14T04:52:30;55.78;;;32.45;;
22007;SDS011;11168;56.976;24.168;2023-12-14T04:54:58;51.90;;;29.88;;
22007;SDS011;11168;56.976;24.168;2023-12-14T04:57:26;57.75;;;31.25;;
22007;SDS011;11168;56.976;24.168;2023-12-14T04:59:53;60.00;;;33.58;;
22007;SDS011;11168;56.976;24.168;2023-12-14T05:02:21;60.25;;;33.45;;
22007;SDS011;11168;56.976;24.168;2023-12-14T05:04:49;57.05;;;32.25;;
22007;SDS011;11168;56.976;24.168;2023-12-14T05:07:16;55.78;;;30.60;;
22007;SDS011;11168;56.976;24.168;2023-12-14T05:09:43;54.55;;;30.88;;
22007;SDS011;11168;56.976;24.168;2023-12-14T05:12:12;50.50;;;27.83;;
22007;SDS011;11168;56.976;24.168;2023-12-14T05:14:39;49.63;;;27.40;;
22007;SDS011;11168;56.976;24.168;2023-12-14T05:17:06;53.42;;;30.48;;
22007;SDS011;11168;56.976;24.168;2023-12-14T05:19:36;57.38;;;34.30;;
22007;SDS011;11168;56.976;24.168;2023-12-14T05:22:06;74.93;;;43.97;;
22007;SDS011;11168;56.976;24.168;2023-12-14T05:24:36;72.88;;;42.58;;
22007;SDS011;11168;56.976;24.168;2023-12-14T05:27:03;55.65;;;32.65;;
22007;SDS011;11168;56.976;24.168;2023-12-14T05:29:30;50.58;;;30.85;;
22007;SDS011;11168;56.976;24.168;2023-12-14T05:32:01;55.72;;;30.83;;
22007;SDS011;11168;56.976;24.168;2023-12-14T05:34:30;48.40;;;27.83;;
22007;SDS011;11168;56.976;24.168;2023-12-14T05:36:58;57.10;;;32.88;;
22007;SDS011;11168;56.976;24.168;2023-12-14T05:39:26;70.68;;;36.80;;
22007;SDS011;11168;56.976;24.168;2023-12-14T05:41:59;64.55;;;35.38;;
22007;SDS011;11168;56.976;24.168;2023-12-14T05:44:27;64.38;;;36.75;;
22007;SDS011;11168;56.976;24.168;2023-12-14T05:46:55;75.22;;;42.67;;
22007;SDS011;11168;56.976;24.168;2023-12-14T05:49:22;66.82;;;37.47;;
22007;SDS011;11168;56.976;24.168;2023-12-14T05:51:49;61.90;;;36.33;;
22007;SDS011;11168;56.976;24.168;2023-12-14T05:54:16;63.03;;;36.03;;
22007;SDS011;11168;56.976;24.168;2023-12-14T05:56:44;69.60;;;37.58;;
22007;SDS011;11168;56.976;24.168;2023-12-14T05:59:12;62.97;;;35.83;;
22007;SDS011;11168;56.976;24.168;2023-12-14T06:01:41;70.82;;;37.97;;
22007;SDS011;11168;56.976;24.168;2023-12-14T06:04:11;69.05;;;37.70;;
22007;SDS011;11168;56.976;24.168;2023-12-14T06:06:39;66.45;;;37.85;;
22007;SDS011;11168;56.976;24.168;2023-12-14T06:09:06;61.88;;;37.88;;
22007;SDS011;11168;56.976;24.168;2023-12-14T06:11:40;69.10;;;38.92;;
22007;SDS011;11168;56.976;24.168;2023-12-14T06:14:08;66.22;;;39.67;;
22007;SDS011;11168;56.976;24.168;2023-12-14T06:16:35;68.05;;;39.95;;
22007;SDS011;11168;56.976;24.168;2023-12-14T06:21:35;74.03;;;38.88;;
22007;SDS011;11168;56.976;24.168;2023-12-14T06:24:02;74.38;;;39.05;;
22007;SDS011;11168;56.976;24.168;2023-12-14T06:26:30;75.70;;;38.03;;
22007;SDS011;11168;56.976;24.168;2023-12-14T06:28:57;70.78;;;38.45;;
22007;SDS011;11168;56.976;24.168;2023-12-14T06:31:25;66.30;;;38.65;;
22007;SDS011;11168;56.976;24.168;2023-12-14T06:33:55;75.57;;;38.45;;
22007;SDS011;11168;56.976;24.168;2023-12-14T06:36:26;72.70;;;39.35;;
22007;SDS011;11168;56.976;24.168;2023-12-14T06:38:59;74.63;;;40.23;;
22007;SDS011;11168;56.976;24.168;2023-12-14T06:41:28;70.40;;;40.92;;
22007;SDS011;11168;56.976;24.168;2023-12-14T06:43:55;78.57;;;42.83;;
22007;SDS011;11168;56.976;24.168;2023-12-14T06:46:24;73.18;;;41.70;;
22007;SDS011;11168;56.976;24.168;2023-12-14T06:48:51;79.18;;;44.72;;
22007;SDS011;11168;56.976;24.168;2023-12-14T06:51:22;89.53;;;47.13;;
22007;SDS011;11168;56.976;24.168;2023-12-14T06:53:49;78.00;;;42.20;;
22007;SDS011;11168;56.976;24.168;2023-12-14T06:56:16;77.40;;;43.90;;
22007;SDS011;11168;56.976;24.168;2023-12-14T06:58:44;81.72;;;44.28;;
22007;SDS011;11168;56.976;24.168;2023-12-14T07:01:15;70.85;;;39.53;;
22007;SDS011;11168;56.976;24.168;2023-12-14T07:03:44;72.93;;;41.55;;
22007;SDS011;11168;56.976;24.168;2023-12-14T07:06:15;75.10;;;40.97;;
22007;SDS011;11168;56.976;24.168;2023-12-14T07:08:44;77.18;;;40.00;;
22007;SDS011;11168;56.976;24.168;2023-12-14T07:11:14;73.15;;;39.15;;
22007;SDS011;11168;56.976;24.168;2023-12-14T07:13:41;85.07;;;41.33;;
22007;SDS011;11168;56.976;24.168;2023-12-14T07:16:10;80.78;;;42.15;;
22007;SDS011;11168;56.976;24.168;2023-12-14T07:18:38;92.68;;;48.47;;
22007;SDS011;11168;56.976;24.168;2023-12-14T07:21:08;83.32;;;46.08;;
22007;SDS011;11168;56.976;24.168;2023-12-14T07:23:35;85.15;;;46.65;;
22007;SDS011;11168;56.976;24.168;2023-12-14T07:26:05;74.55;;;39.97;;
22007;SDS011;11168;56.976;24.168;2023-12-14T07:28:33;79.45;;;39.55;;
22007;SDS011;11168;56.976;24.168;2023-12-14T07:31:04;63.30;;;36.58;;
22007;SDS011;11168;56.976;24.168;2023-12-14T07:33:32;65.15;;;36.78;;
22007;SDS011;11168;56.976;24.168;2023-12-14T07:35:59;73.95;;;38.10;;
22007;SDS011;11168;56.976;24.168;2023-12-14T07:38:28;68.18;;;37.25;;
22007;SDS011;11168;56.976;24.168;2023-12-14T07:40:56;68.70;;;36.15;;
22007;SDS011;11168;56.976;24.168;2023-12-14T07:43:24;62.80;;;35.83;;
22007;SDS011;11168;56.976;24.168;2023-12-14T07:45:51;66.65;;;35.78;;
22007;SDS011;11168;56.976;24.168;2023-12-14T07:48:18;57.88;;;33.67;;
22007;SDS011;11168;56.976;24.168;2023-12-14T07:50:46;60.35;;;33.58;;
22007;SDS011;11168;56.976;24.168;2023-12-14T07:53:15;56.03;;;34.45;;
22007;SDS011;11168;56.976;24.168;2023-12-14T07:55:42;61.92;;;36.75;;
22007;SDS011;11168;56.976;24.168;2023-12-14T07:58:10;67.22;;;39.78;;
22007;SDS011;11168;56.976;24.168;2023-12-14T08:00:38;74.60;;;40.72;;
22007;SDS011;11168;56.976;24.168;2023-12-14T08:03:06;86.78;;;44.17;;
22007;SDS011;11168;56.976;24.168;2023-12-14T08:05:33;84.25;;;44.78;;
22007;SDS011;11168;56.976;24.168;2023-12-14T08:08:06;87.28;;;44.92;;
22007;SDS011;11168;56.976;24.168;2023-12-14T08:10:34;79.25;;;43.72;;
22007;SDS011;11168;56.976;24.168;2023-12-14T08:13:02;87.93;;;44.60;;
22007;SDS011;11168;56.976;24.168;2023-12-14T08:15:30;80.15;;;43.50;;
22007;SDS011;11168;56.976;24.168;2023-12-14T08:17:57;76.72;;;42.13;;
22007;SDS011;11168;56.976;24.168;2023-12-14T08:20:24;70.05;;;38.78;;
22007;SDS011;11168;56.976;24.168;2023-12-14T08:22:51;65.05;;;36.38;;
22007;SDS011;11168;56.976;24.168;2023-12-14T08:25:19;65.07;;;36.53;;
22007;SDS011;11168;56.976;24.168;2023-12-14T08:27:46;59.92;;;35.40;;
22007;SDS011;11168;56.976;24.168;2023-12-14T08:30:17;58.10;;;35.10;;
22007;SDS011;11168;56.976;24.168;2023-12-14T08:32:49;59.95;;;34.75;;
22007;SDS011;11168;56.976;24.168;2023-12-14T08:35:17;53.53;;;32.53;;
22007;SDS011;11168;56.976;24.168;2023-12-14T08:37:46;58.60;;;33.17;;
22007;SDS011;11168;56.976;24.168;2023-12-14T08:40:13;50.10;;;29.48;;
22007;SDS011;11168;56.976;24.168;2023-12-14T08:42:40;52.13;;;30.15;;
22007;SDS011;11168;56.976;24.168;2023-12-14T08:45:08;50.95;;;30.73;;
22007;SDS011;11168;56.976;24.168;2023-12-14T08:47:39;49.08;;;29.00;;
22007;SDS011;11168;56.976;24.168;2023-12-14T08:50:06;58.65;;;33.83;;
22007;SDS011;11168;56.976;24.168;2023-12-14T08:52:35;58.08;;;34.00;;
22007;SDS011;11168;56.976;24.168;2023-12-14T08:55:03;62.47;;;33.78;;
22007;SDS011;11168;56.976;24.168;2023-12-14T08:57:31;57.13;;;31.08;;
22007;SDS011;11168;56.976;24.168;2023-12-14T08:59:57;51.22;;;32.55;;
22007;SDS011;11168;56.976;24.168;2023-12-14T09:02:24;48.28;;;29.67;;
22007;SDS011;11168;56.976;24.168;2023-12-14T09:04:53;49.28;;;30.25;;
22007;SDS011;11168;56.976;24.168;2023-12-14T09:07:21;41.85;;;26.95;;
22007;SDS011;11168;56.976;24.168;2023-12-14T09:09:48;44.80;;;27.40;;
22007;SDS011;11168;56.976;24.168;2023-12-14T09:12:15;42.42;;;26.95;;
22007;SDS011;11168;56.976;24.168;2023-12-14T09:14:43;52.75;;;32.70;;
22007;SDS011;11168;56.976;24.168;2023-12-14T09:17:10;51.05;;;32.45;;
22007;SDS011;11168;56.976;24.168;2023-12-14T09:19:37;49.67;;;29.77;;
22007;SDS011;11168;56.976;24.168;2023-12-14T09:22:05;46.70;;;28.95;;
22007;SDS011;11168;56.976;24.168;2023-12-14T09:24:32;39.67;;;25.23;;
22007;SDS011;11168;56.976;24.168;2023-12-14T09:26:59;38.65;;;24.75;;
22007;SDS011;11168;56.976;24.168;2023-12-14T09:29:26;42.00;;;25.42;;
22007;SDS011;11168;56.976;24.168;2023-12-14T09:31:53;41.40;;;23.45;;
22007;SDS011;11168;56.976;24.168;2023-12-14T09:34:21;37.90;;;23.25;;
22007;SDS011;11168;56.976;24.168;2023-12-14T09:36:48;35.65;;;22.52;;
22007;SDS011;11168;56.976;24.168;2023-12-14T09:39:17;35.88;;;20.92;;
22007;SDS011;11168;56.976;24.168;2023-12-14T09:41:45;31.67;;;19.33;;
22007;SDS011;11168;56.976;24.168;2023-12-14T09:44:14;30.40;;;19.08;;
22007;SDS011;11168;56.976;24.168;2023-12-14T09:46:41;29.27;;;18.65;;
22007;SDS011;11168;56.976;24.168;2023-12-14T09:49:16;25.92;;;16.92;;
22007;SDS011;11168;56.976;24.168;2023-12-14T09:51:45;26.90;;;16.05;;
22007;SDS011;11168;56.976;24.168;2023-12-14T09:54:13;24.70;;;16.60;;
22007;SDS011;11168;56.976;24.168;2023-12-14T09:56:47;25.63;;;16.13;;
22007;SDS011;11168;56.976;24.168;2023-12-14T09:59:15;26.50;;;17.17;;
22007;SDS011;11168;56.976;24.168;2023-12-14T10:01:43;26.65;;;17.80;;
22007;SDS011;11168;56.976;24.168;2023-12-14T10:04:16;30.23;;;18.98;;
22007;SDS011;11168;56.976;24.168;2023-12-14T10:06:45;29.00;;;19.23;;
22007;SDS011;11168;56.976;24.168;2023-12-14T10:09:14;30.95;;;20.08;;
22007;SDS011;11168;56.976;24.168;2023-12-14T10:11:44;30.15;;;18.90;;
22007;SDS011;11168;56.976;24.168;2023-12-14T10:14:22;29.15;;;18.75;;
22007;SDS011;11168;56.976;24.168;2023-12-14T10:16:52;25.63;;;18.17;;
22007;SDS011;11168;56.976;24.168;2023-12-14T10:19:28;28.63;;;17.98;;
22007;SDS011;11168;56.976;24.168;2023-12-14T10:21:55;27.80;;;16.45;;
22007;SDS011;11168;56.976;24.168;2023-12-14T10:24:22;26.08;;;17.27;;
22007;SDS011;11168;56.976;24.168;2023-12-14T10:26:50;26.08;;;17.30;;
22007;SDS011;11168;56.976;24.168;2023-12-14T10:29:18;28.90;;;17.95;;
22007;SDS011;11168;56.976;24.168;2023-12-14T10:31:45;30.88;;;19.52;;
22007;SDS011;11168;56.976;24.168;2023-12-14T10:34:13;49.75;;;27.63;;
22007;SDS011;11168;56.976;24.168;2023-12-14T10:36:40;38.58;;;22.00;;
22007;SDS011;11168;56.976;24.168;2023-12-14T10:41:42;40.83;;;21.23;;
22007;SDS011;11168;56.976;24.168;2023-12-14T10:44:20;36.33;;;21.67;;
22007;SDS011;11168;56.976;24.168;2023-12-14T10:47:11;37.72;;;20.20;;
22007;SDS011;11168;56.976;24.168;2023-12-14T10:49:43;32.80;;;18.15;;
22007;SDS011;11168;56.976;24.168;2023-12-14T10:52:16;27.13;;;15.05;;
22007;SDS011;11168;56.976;24.168;2023-12-14T10:54:44;21.38;;;12.93;;
22007;SDS011;11168;56.976;24.168;2023-12-14T10:57:13;20.23;;;12.18;;
22007;SDS011;11168;56.976;24.168;2023-12-14T10:59:41;22.45;;;12.73;;
22007;SDS011;11168;56.976;24.168;2023-12-14T11:02:11;17.10;;;11.18;;
22007;SDS011;11168;56.976;24.168;2023-12-14T11:04:54;18.25;;;11.32;;
22007;SDS011;11168;56.976;24.168;2023-12-14T11:07:46;16.40;;;10.30;;
22007;SDS011;11168;56.976;24.168;2023-12-14T11:10:14;16.20;;;9.85;;
22007;SDS011;11168;56.976;24.168;2023-12-14T11:12:57;17.85;;;9.70;;
22007;SDS011;11168;56.976;24.168;2023-12-14T11:15:35;16.00;;;9.32;;
22007;SDS011;11168;56.976;24.168;2023-12-14T11:23:13;13.82;;;9.32;;
22007;SDS011;11168;56.976;24.168;2023-12-14T11:25:52;15.40;;;9.77;;
22007;SDS011;11168;56.976;24.168;2023-12-14T11:28:26;14.77;;;9.07;;
22007;SDS011;11168;56.976;24.168;2023-12-14T11:30:56;17.27;;;10.80;;
22007;SDS011;11168;56.976;24.168;2023-12-14T11:33:26;14.73;;;10.48;;
22007;SDS011;11168;56.976;24.168;2023-12-14T11:35:55;17.85;;;10.63;;
22007;SDS011;11168;56.976;24.168;2023-12-14T11:38:28;16.08;;;10.52;;
22007;SDS011;11168;56.976;24.168;2023-12-14T11:40:57;17.58;;;11.48;;
22007;SDS011;11168;56.976;24.168;2023-12-14T11:43:25;18.45;;;10.65;;
22007;SDS011;11168;56.976;24.168;2023-12-14T11:45:55;17.90;;;9.38;;
22007;SDS011;11168;56.976;24.168;2023-12-14T11:48:25;19.05;;;8.50;;
22007;SDS011;11168;56.976;24.168;2023-12-14T11:50:53;12.50;;;7.40;;
22007;SDS011;11168;56.976;24.168;2023-12-14T11:53:24;68.93;;;39.47;;
22007;SDS011;11168;56.976;24.168;2023-12-14T11:55:51;13.00;;;7.38;;
22007;SDS011;11168;56.976;24.168;2023-12-14T11:58:19;11.80;;;7.00;;
22007;SDS011;11168;56.976;24.168;2023-12-14T12:00:46;14.95;;;7.68;;
22007;SDS011;11168;56.976;24.168;2023-12-14T12:03:17;20.25;;;9.75;;
22007;SDS011;11168;56.976;24.168;2023-12-14T12:05:49;15.18;;;8.50;;
22007;SDS011;11168;56.976;24.168;2023-12-14T12:08:20;19.05;;;9.50;;
22007;SDS011;11168;56.976;24.168;2023-12-14T12:10:48;18.98;;;10.98;;
22007;SDS011;11168;56.976;24.168;2023-12-14T12:13:16;15.40;;;9.52;;
22007;SDS011;11168;56.976;24.168;2023-12-14T12:15:48;16.02;;;10.43;;
22007;SDS011;11168;56.976;24.168;2023-12-14T12:18:15;16.23;;;10.57;;
22007;SDS011;11168;56.976;24.168;2023-12-14T12:20:44;20.80;;;10.80;;
22007;SDS011;11168;56.976;24.168;2023-12-14T12:23:11;17.48;;;11.05;;
22007;SDS011;11168;56.976;24.168;2023-12-14T12:25:38;17.95;;;12.02;;
22007;SDS011;11168;56.976;24.168;2023-12-14T12:28:06;17.00;;;11.40;;
22007;SDS011;11168;56.976;24.168;2023-12-14T12:30:33;18.30;;;11.90;;
22007;SDS011;11168;56.976;24.168;2023-12-14T12:33:07;17.45;;;12.57;;
22007;SDS011;11168;56.976;24.168;2023-12-14T12:35:37;23.70;;;13.45;;
22007;SDS011;11168;56.976;24.168;2023-12-14T12:38:04;24.27;;;13.88;;
22007;SDS011;11168;56.976;24.168;2023-12-14T12:40:31;21.38;;;14.13;;
22007;SDS011;11168;56.976;24.168;2023-12-14T12:43:02;24.83;;;15.77;;
22007;SDS011;11168;56.976;24.168;2023-12-14T12:45:30;26.52;;;15.63;;
22007;SDS011;11168;56.976;24.168;2023-12-14T12:47:59;24.10;;;14.95;;
22007;SDS011;11168;56.976;24.168;2023-12-14T12:50:26;33.35;;;19.40;;
22007;SDS011;11168;56.976;24.168;2023-12-14T12:52:53;24.92;;;16.15;;
22007;SDS011;11168;56.976;24.168;2023-12-14T12:55:21;24.02;;;14.90;;
22007;SDS011;11168;56.976;24.168;2023-12-14T12:57:50;26.58;;;14.60;;
22007;SDS011;11168;56.976;24.168;2023-12-14T13:00:18;24.90;;;14.65;;
22007;SDS011;11168;56.976;24.168;2023-12-14T13:02:46;26.02;;;15.82;;
22007;SDS011;11168;56.976;24.168;2023-12-14T13:05:14;29.52;;;16.38;;
22007;SDS011;11168;56.976;24.168;2023-12-14T13:07:44;26.35;;;15.50;;
22007;SDS011;11168;56.976;24.168;2023-12-14T13:10:15;28.83;;;17.13;;
22007;SDS011;11168;56.976;24.168;2023-12-14T13:12:57;28.58;;;17.92;;
22007;SDS011;11168;56.976;24.168;2023-12-14T13:15:24;32.45;;;20.13;;
22007;SDS011;11168;56.976;24.168;2023-12-14T13:17:54;31.50;;;19.45;;
22007;SDS011;11168;56.976;24.168;2023-12-14T13:20:22;34.13;;;21.10;;
22007;SDS011;11168;56.976;24.168;2023-12-14T13:22:55;37.03;;;20.38;;
22007;SDS011;11168;56.976;24.168;2023-12-14T13:25:22;256.50;;;171.95;;
22007;SDS011;11168;56.976;24.168;2023-12-14T13:27:53;70.15;;;39.95;;
22007;SDS011;11168;56.976;24.168;2023-12-14T13:30:20;52.45;;;27.38;;
22007;SDS011;11168;56.976;24.168;2023-12-14T13:32:50;44.60;;;26.98;;
22007;SDS011;11168;56.976;24.168;2023-12-14T13:35:20;41.33;;;25.48;;
22007;SDS011;11168;56.976;24.168;2023-12-14T13:37:49;42.97;;;25.90;;
22007;SDS011;11168;56.976;24.168;2023-12-14T13:40:17;41.88;;;25.63;;
22007;SDS011;11168;56.976;24.168;2023-12-14T13:42:45;44.72;;;25.50;;
22007;SDS011;11168;56.976;24.168;2023-12-14T13:45:28;47.05;;;27.10;;
22007;SDS011;11168;56.976;24.168;2023-12-14T13:47:57;47.72;;;27.23;;
22007;SDS011;11168;56.976;24.168;2023-12-14T13:50:25;41.65;;;26.35;;
22007;SDS011;11168;56.976;24.168;2023-12-14T13:52:55;52.88;;;26.30;;
22007;SDS011;11168;56.976;24.168;2023-12-14T13:55:22;45.03;;;24.92;;
22007;SDS011;11168;56.976;24.168;2023-12-14T13:57:49;37.90;;;22.85;;
22007;SDS011;11168;56.976;24.168;2023-12-14T14:00:18;30.45;;;20.00;;
22007;SDS011;11168;56.976;24.168;2023-12-14T14:02:45;33.75;;;20.25;;
22007;SDS011;11168;56.976;24.168;2023-12-14T14:05:12;29.70;;;18.27;;
22007;SDS011;11168;56.976;24.168;2023-12-14T14:07:41;26.77;;;15.85;;
22007;SDS011;11168;56.976;24.168;2023-12-14T14:10:08;27.17;;;16.60;;
22007;SDS011;11168;56.976;24.168;2023-12-14T14:12:36;27.23;;;16.98;;
22007;SDS011;11168;56.976;24.168;2023-12-14T14:15:04;29.25;;;18.20;;
22007;SDS011;11168;56.976;24.168;2023-12-14T14:17:31;35.55;;;18.52;;
22007;SDS011;11168;56.976;24.168;2023-12-14T14:19:58;26.45;;;18.58;;
22007;SDS011;11168;56.976;24.168;2023-12-14T14:22:26;28.35;;;18.98;;
22007;SDS011;11168;56.976;24.168;2023-12-14T14:24:53;31.63;;;20.23;;
22007;SDS011;11168;56.976;24.168;2023-12-14T14:27:22;32.08;;;20.05;;